createdAt,value
2018-03-11T00:00:50.722Z,83.30
2018-03-11T00:03:18.193Z,82.60
2018-03-11T00:05:45.648Z,81.80
2018-03-11T00:08:13.114Z,80.60
2018-03-11T00:10:40.751Z,80.40
2018-03-11T00:13:08.222Z,80.10
2018-03-11T00:15:35.717Z,79.70
2018-03-11T00:18:03.177Z,79.30
2018-03-11T00:20:30.656Z,78.80
2018-03-11T00:22:58.881Z,77.50
2018-03-11T00:25:26.348Z,77.40
2018-03-11T00:27:53.906Z,76.80
2018-03-11T00:30:21.461Z,76.00
2018-03-11T00:32:48.914Z,75.20
2018-03-11T00:35:16.362Z,74.50
2018-03-11T00:37:43.956Z,74.00
2018-03-11T00:40:12.177Z,72.40
2018-03-11T00:42:39.666Z,72.40
2018-03-11T00:45:07.123Z,71.70
2018-03-11T00:47:34.688Z,71.30
2018-03-11T00:50:02.236Z,71.20
2018-03-11T00:52:30.488Z,70.80
2018-03-11T00:54:57.974Z,70.80
2018-03-11T00:57:25.533Z,70.40
2018-03-11T00:59:52.984Z,70.00
2018-03-11T01:02:20.446Z,69.40
2018-03-11T01:04:48.817Z,68.40
2018-03-11T01:07:16.375Z,68.40
2018-03-11T01:09:43.859Z,68.20
2018-03-11T01:12:12.082Z,66.10
2018-03-11T01:14:39.552Z,66.10
2018-03-11T01:17:07.040Z,66.00
2018-03-11T01:19:34.521Z,65.90
2018-03-11T01:22:01.977Z,65.30
2018-03-11T01:24:29.437Z,64.80
2018-03-11T01:26:56.905Z,64.80
2018-03-11T01:29:24.389Z,63.70
2018-03-11T01:31:51.961Z,63.70
2018-03-11T01:34:19.417Z,63.50
2018-03-11T01:36:46.974Z,62.00
2018-03-11T01:39:14.448Z,62.40
2018-03-11T01:41:42.693Z,62.50
2018-03-11T01:44:10.169Z,62.50
2018-03-11T01:46:37.655Z,63.10
2018-03-11T01:49:05.161Z,63.60
2018-03-11T01:51:32.646Z,63.40
2018-03-11T01:54:00.905Z,63.90
2018-03-11T01:56:28.462Z,63.90
2018-03-11T01:58:55.913Z,64.30
2018-03-11T02:01:23.373Z,64.90
2018-03-11T02:03:50.925Z,65.30
2018-03-11T02:06:18.391Z,65.50
2018-03-11T02:08:45.847Z,65.90
2018-03-11T02:11:13.403Z,65.50
2018-03-11T02:13:40.856Z,65.70
2018-03-11T02:16:08.327Z,65.70
2018-03-11T02:18:36.577Z,65.70
2018-03-11T02:21:04.088Z,65.60
2018-03-11T02:23:31.548Z,65.70
2018-03-11T02:25:59.032Z,65.80
2018-03-11T02:28:26.516Z,65.90
2018-03-11T02:30:54.002Z,66.20
2018-03-11T02:33:21.458Z,66.60
2018-03-11T02:35:48.911Z,67.00
2018-03-11T02:38:17.155Z,67.70
2018-03-11T02:40:44.702Z,67.80
2018-03-11T02:43:12.960Z,68.70
2018-03-11T02:45:40.409Z,68.70
2018-03-11T02:48:07.984Z,69.00
2018-03-11T02:50:35.561Z,69.40
2018-03-11T02:53:03.096Z,70.00
2018-03-11T02:55:30.665Z,70.40
2018-03-11T02:57:58.151Z,70.80
2018-03-11T03:00:26.397Z,71.40
2018-03-11T03:02:53.962Z,71.40
2018-03-11T03:05:21.453Z,71.70
2018-03-11T03:07:48.974Z,71.80
2018-03-11T03:10:16.520Z,72.00
2018-03-11T03:12:44.077Z,71.70
2018-03-11T03:15:11.650Z,71.50
2018-03-11T03:17:39.200Z,71.50
2018-03-11T03:20:06.672Z,71.60
2018-03-11T03:22:34.116Z,71.20
2018-03-11T03:25:01.619Z,70.60
2018-03-11T03:27:29.129Z,70.90
2018-03-11T03:29:56.585Z,71.30
2018-03-11T03:32:24.051Z,71.30
2018-03-11T03:34:51.529Z,71.40
2018-03-11T03:37:18.986Z,71.40
2018-03-11T03:39:47.229Z,71.80
2018-03-11T03:42:14.693Z,71.70
2018-03-11T03:44:42.149Z,71.80
2018-03-11T03:47:09.634Z,72.10
2018-03-11T03:49:37.131Z,72.10
2018-03-11T03:52:04.585Z,72.20
2018-03-11T03:54:32.068Z,72.40
2018-03-11T03:56:59.524Z,72.40
2018-03-11T03:59:27.004Z,72.70
2018-03-11T04:01:55.221Z,72.90
2018-03-11T04:04:22.689Z,72.90
2018-03-11T04:06:50.908Z,73.10
2018-03-11T04:09:18.397Z,73.10
2018-03-11T04:11:45.849Z,73.00
2018-03-11T04:14:13.582Z,72.90
2018-03-11T04:16:41.803Z,72.10
2018-03-11T04:19:09.418Z,72.20
2018-03-11T04:21:36.936Z,72.00
2018-03-11T04:24:04.392Z,71.70
2018-03-11T04:26:31.873Z,71.10
2018-03-11T04:29:00.093Z,70.10
2018-03-11T04:31:27.585Z,70.00
2018-03-11T04:33:55.797Z,69.00
2018-03-11T04:36:23.272Z,69.00
2018-03-11T04:38:50.731Z,68.60
2018-03-11T04:41:18.234Z,68.30
2018-03-11T04:43:45.783Z,67.90
2018-03-11T04:46:13.283Z,67.70
2018-03-11T04:48:40.733Z,67.30
2018-03-11T04:51:08.213Z,66.90
2018-03-11T04:53:35.697Z,66.70
2018-03-11T04:56:03.266Z,66.20
2018-03-11T04:58:30.746Z,65.80
2018-03-11T05:00:58.986Z,64.60
2018-03-11T05:03:26.552Z,64.60
2018-03-11T05:05:54.024Z,64.20
2018-03-11T05:08:22.242Z,63.30
2018-03-11T05:10:49.739Z,63.40
2018-03-11T05:13:17.189Z,62.60
2018-03-11T05:15:44.637Z,61.80
2018-03-11T05:18:12.114Z,61.10
2018-03-11T05:20:39.568Z,60.70
2018-03-11T05:23:07.045Z,59.60
2018-03-11T05:25:35.260Z,57.60
2018-03-11T05:28:02.746Z,57.60
2018-03-11T05:30:30.198Z,57.50
2018-03-11T05:32:57.682Z,57.30
2018-03-11T05:35:25.934Z,55.80
2018-03-11T05:37:53.391Z,55.80
2018-03-11T05:40:20.869Z,55.60
2018-03-11T05:42:49.104Z,54.90
2018-03-11T05:45:16.556Z,55.00
2018-03-11T05:47:44.042Z,54.90
2018-03-11T05:50:12.401Z,54.40
2018-03-11T05:52:39.857Z,54.30
2018-03-11T05:55:07.340Z,54.10
2018-03-11T05:57:35.589Z,53.40
2018-03-11T06:00:03.042Z,53.40
2018-03-11T06:02:30.500Z,53.30
2018-03-11T06:04:58.055Z,53.10
2018-03-11T06:07:25.519Z,52.90
2018-03-11T06:09:53.005Z,52.70
2018-03-11T06:12:21.237Z,52.10
2018-03-11T06:14:48.697Z,52.20
2018-03-11T06:17:16.231Z,52.30
2018-03-11T06:19:43.765Z,52.50
2018-03-11T06:22:11.248Z,52.50
2018-03-11T06:24:38.700Z,52.60
2018-03-11T06:27:06.189Z,52.50
2018-03-11T06:29:33.666Z,52.40
2018-03-11T06:32:01.904Z,51.40
2018-03-11T06:34:29.382Z,51.40
2018-03-11T06:36:56.868Z,50.20
2018-03-11T06:39:24.327Z,50.30
2018-03-11T06:41:51.805Z,50.30
2018-03-11T06:44:19.272Z,50.00
2018-03-11T06:46:46.824Z,50.00
2018-03-11T06:49:14.285Z,50.00
2018-03-11T06:51:41.760Z,50.20
2018-03-11T06:54:09.229Z,50.30
2018-03-11T06:56:36.696Z,50.30
2018-03-11T06:59:04.912Z,50.20
2018-03-11T07:01:32.373Z,50.10
2018-03-11T07:03:59.981Z,50.20
2018-03-11T07:06:27.433Z,50.10
2018-03-11T07:08:54.879Z,50.10
2018-03-11T07:11:22.348Z,49.90
2018-03-11T07:13:50.613Z,49.80
2018-03-11T07:16:18.133Z,49.80
2018-03-11T07:18:45.551Z,50.10
2018-03-11T07:21:13.773Z,50.30
2018-03-11T07:23:41.624Z,50.30
2018-03-11T07:26:09.081Z,50.30
2018-03-11T07:28:36.537Z,50.40
2018-03-11T07:31:04.018Z,50.20
2018-03-11T07:33:31.512Z,50.20
2018-03-11T07:35:59.026Z,50.40
2018-03-11T07:38:27.217Z,50.20
2018-03-11T07:40:54.775Z,50.20
2018-03-11T07:43:22.225Z,50.20
2018-03-11T07:45:49.694Z,50.30
2018-03-11T07:48:17.930Z,50.30
2018-03-11T07:50:45.412Z,50.30
2018-03-11T07:53:12.866Z,50.20
2018-03-11T07:55:40.345Z,50.70
2018-03-11T07:58:08.578Z,49.90
2018-03-11T08:00:36.037Z,49.90
2018-03-11T08:03:03.650Z,49.80
2018-03-11T08:05:31.105Z,49.90
2018-03-11T08:07:58.568Z,49.90
2018-03-11T08:10:26.202Z,49.80
2018-03-11T08:12:54.416Z,49.30
2018-03-11T08:15:21.876Z,49.30
2018-03-11T08:17:49.344Z,49.20
2018-03-11T08:20:17.033Z,49.80
2018-03-11T08:22:44.445Z,50.00
2018-03-11T08:25:12.138Z,50.30
2018-03-11T08:27:39.699Z,50.80
2018-03-11T08:30:07.260Z,51.10
2018-03-11T08:32:35.497Z,51.50
2018-03-11T08:35:03.387Z,51.60
2018-03-11T08:37:30.884Z,51.80
2018-03-11T08:39:59.113Z,52.10
2018-03-11T08:42:26.681Z,52.00
2018-03-11T08:44:54.912Z,52.20
2018-03-11T08:47:22.418Z,52.30
2018-03-11T08:49:49.871Z,52.50
2018-03-11T08:52:17.416Z,52.80
2018-03-11T08:54:44.989Z,53.20
2018-03-11T08:57:13.466Z,53.80
2018-03-11T08:59:41.119Z,53.80
2018-03-11T09:02:08.605Z,54.10
2018-03-11T09:04:36.849Z,54.50
2018-03-11T09:07:07.397Z,54.50
2018-03-11T09:09:36.954Z,55.00
2018-03-11T09:12:05.758Z,54.60
2018-03-11T09:14:33.297Z,54.80
2018-03-11T09:17:01.832Z,55.10
2018-03-11T09:19:33.085Z,55.60
2018-03-11T09:22:02.195Z,55.80
2018-03-11T09:24:30.361Z,55.70
2018-03-11T09:27:02.744Z,55.80
2018-03-11T09:29:31.100Z,55.80
2018-03-11T09:31:58.849Z,55.90
2018-03-11T09:34:26.329Z,55.60
2018-03-11T09:36:53.814Z,55.50
2018-03-11T09:39:21.328Z,55.50
2018-03-11T09:41:49.581Z,55.20
2018-03-11T09:44:17.152Z,55.20
2018-03-11T09:46:45.383Z,55.40
2018-03-11T09:49:12.865Z,55.40
2018-03-11T09:51:41.114Z,55.40
2018-03-11T09:54:08.622Z,55.50
2018-03-11T09:56:36.843Z,55.50
2018-03-11T09:59:04.296Z,55.50
2018-03-11T10:01:31.800Z,55.50
2018-03-11T10:04:00.166Z,55.30
2018-03-11T10:06:27.621Z,55.30
2018-03-11T10:08:55.291Z,55.20
2018-03-11T10:11:23.555Z,55.00
2018-03-11T10:13:51.025Z,55.00
2018-03-11T10:16:19.775Z,55.50
2018-03-11T10:18:47.422Z,54.90
2018-03-11T10:21:14.901Z,54.60
2018-03-11T10:23:42.472Z,54.60
2018-03-11T10:26:09.935Z,54.60
2018-03-11T10:28:38.203Z,54.00
2018-03-11T10:31:08.386Z,54.00
2018-03-11T10:33:35.925Z,54.10
2018-03-11T10:36:03.388Z,54.00
2018-03-11T10:38:30.879Z,54.10
2018-03-11T10:40:58.368Z,54.10
2018-03-11T10:43:26.661Z,53.80
2018-03-11T10:45:54.092Z,53.80
2018-03-11T10:48:22.355Z,51.50
2018-03-11T10:50:50.677Z,51.30
2018-03-11T10:53:18.058Z,51.30
2018-03-11T10:55:45.532Z,50.90
2018-03-11T10:58:13.773Z,50.30
2018-03-11T11:00:43.062Z,50.40
2018-03-11T11:03:16.385Z,50.30
2018-03-11T11:05:43.873Z,50.20
2018-03-11T11:08:11.415Z,50.00
2018-03-11T11:10:39.069Z,50.00
2018-03-11T11:13:06.537Z,49.80
2018-03-11T11:15:34.017Z,48.10
2018-03-11T11:18:02.307Z,48.00
2018-03-11T11:20:29.748Z,48.10
2018-03-11T11:22:58.101Z,48.60
2018-03-11T11:25:25.645Z,48.60
2018-03-11T11:27:53.221Z,49.40
2018-03-11T11:30:20.765Z,49.90
2018-03-11T11:32:48.256Z,50.10
2018-03-11T11:35:16.510Z,50.40
2018-03-11T11:37:44.080Z,50.40
2018-03-11T11:40:12.298Z,50.00
2018-03-11T11:42:39.787Z,50.00
2018-03-11T11:45:07.343Z,49.90
2018-03-11T11:47:34.801Z,49.40
2018-03-11T11:50:03.076Z,49.40
2018-03-11T11:52:30.548Z,49.40
2018-03-11T11:54:59.255Z,49.70
2018-03-11T11:57:26.773Z,49.70
2018-03-11T11:59:55.208Z,49.60
2018-03-11T12:02:22.698Z,49.70
2018-03-11T12:04:50.270Z,49.70
2018-03-11T12:07:18.226Z,49.70
2018-03-11T12:09:45.663Z,49.90
2018-03-11T12:12:13.202Z,49.90
2018-03-11T12:14:41.422Z,49.70
2018-03-11T12:17:09.658Z,50.00
2018-03-11T12:19:37.162Z,50.00
2018-03-11T12:22:05.400Z,50.30
2018-03-11T12:24:32.844Z,50.30
2018-03-11T12:27:00.316Z,50.60
2018-03-11T12:29:27.787Z,50.70
2018-03-11T12:31:55.262Z,50.70
2018-03-11T12:34:22.807Z,51.00
2018-03-11T12:36:50.196Z,51.60
2018-03-11T12:39:17.705Z,51.10
2018-03-11T12:41:45.262Z,51.20
2018-03-11T12:44:12.821Z,51.80
2018-03-11T12:46:40.393Z,52.00
2018-03-11T12:49:08.786Z,52.60
2018-03-11T12:51:37.000Z,52.20
2018-03-11T12:54:29.589Z,52.10
2018-03-11T12:56:57.087Z,52.30
2018-03-11T12:59:24.590Z,52.50
2018-03-11T13:01:52.069Z,52.70
2018-03-11T13:04:19.576Z,52.50
2018-03-11T13:06:47.072Z,52.60
2018-03-11T13:09:14.525Z,52.80
2018-03-11T13:11:42.042Z,53.30
2018-03-11T13:14:09.505Z,54.00
2018-03-11T13:16:36.996Z,54.80
2018-03-11T13:19:04.477Z,55.30
2018-03-11T13:21:32.729Z,55.50
2018-03-11T13:24:00.951Z,55.60
2018-03-11T13:26:28.430Z,55.50
2018-03-11T13:28:55.901Z,56.00
2018-03-11T13:31:23.907Z,56.20
2018-03-11T13:34:03.927Z,57.00
2018-03-11T13:36:31.394Z,57.00
2018-03-11T13:42:03.318Z,58.50
2018-03-11T13:44:30.801Z,58.90
2018-03-11T13:47:05.322Z,59.60
2018-03-11T13:49:33.066Z,59.70
2018-03-11T13:52:13.822Z,59.80
2018-03-11T13:54:41.322Z,60.00
2018-03-11T14:00:10.358Z,61.20
2018-03-11T14:02:38.616Z,61.90
2018-03-11T14:05:06.090Z,61.90
2018-03-11T14:07:34.504Z,62.80
2018-03-11T14:10:02.562Z,62.80
2018-03-11T14:12:30.011Z,63.20
2018-03-11T14:14:57.489Z,63.20
2018-03-11T14:17:25.046Z,63.10
2018-03-11T14:19:55.144Z,63.40
2018-03-11T14:22:22.884Z,66.10
2018-03-11T14:24:52.590Z,66.10
2018-03-11T14:27:26.055Z,66.10
2018-03-11T14:29:54.643Z,66.20
2018-03-11T14:32:23.456Z,66.80
2018-03-11T14:34:51.694Z,67.30
2018-03-11T14:37:19.179Z,67.30
2018-03-11T14:39:46.671Z,67.60
2018-03-11T14:42:14.163Z,68.10
2018-03-11T14:44:41.613Z,68.60
2018-03-11T14:47:09.194Z,68.90
2018-03-11T14:49:36.694Z,68.90
2018-03-11T14:52:04.185Z,69.20
2018-03-11T14:54:31.713Z,69.60
2018-03-11T14:56:59.199Z,69.50
2018-03-11T14:59:26.710Z,69.70
2018-03-11T15:01:54.270Z,69.90
2018-03-11T15:04:22.230Z,70.40
2018-03-11T15:06:50.747Z,70.90
2018-03-11T15:09:18.671Z,70.90
2018-03-11T15:11:46.982Z,72.00
2018-03-11T15:14:14.594Z,72.10
2018-03-11T15:16:42.066Z,73.20
2018-03-11T15:19:10.429Z,74.20
2018-03-11T15:21:42.143Z,74.10
2018-03-11T15:24:10.210Z,74.50
2018-03-11T15:26:37.873Z,75.20
2018-03-11T15:29:05.353Z,76.10
2018-03-11T15:31:32.922Z,76.90
2018-03-11T15:34:00.441Z,77.60
2018-03-11T15:36:28.172Z,78.60
2018-03-11T15:38:55.688Z,79.40
2018-03-11T15:41:23.194Z,80.40
2018-03-11T15:43:50.711Z,81.60
2018-03-11T15:46:18.170Z,82.70
2018-03-11T15:48:45.726Z,83.20
2018-03-11T15:51:13.283Z,83.70
2018-03-11T15:53:40.773Z,84.30
2018-03-11T15:56:08.262Z,84.80
2018-03-11T15:58:35.740Z,85.20
2018-03-11T16:01:03.220Z,85.80
2018-03-11T16:03:30.736Z,86.50
2018-03-11T16:05:58.237Z,86.90
2018-03-11T16:08:26.660Z,87.90
2018-03-11T16:10:54.175Z,87.90
2018-03-11T16:13:22.397Z,88.90
2018-03-11T16:15:49.990Z,88.70
2018-03-11T16:18:17.613Z,88.70
2018-03-11T16:20:45.206Z,88.70
2018-03-11T16:23:12.767Z,89.10
2018-03-11T16:25:40.293Z,89.60
2018-03-11T16:28:07.771Z,90.00
2018-03-11T16:30:35.617Z,90.20
2018-03-11T16:33:03.094Z,90.30
2018-03-11T16:35:30.568Z,90.50
2018-03-11T16:37:58.108Z,90.80
2018-03-11T16:40:25.672Z,91.40
2018-03-11T16:42:53.931Z,91.60
2018-03-11T16:45:21.425Z,91.60
2018-03-11T16:47:49.654Z,91.80
2018-03-11T16:50:18.664Z,91.80
2018-03-11T16:52:46.205Z,91.90
2018-03-11T16:55:13.661Z,91.80
2018-03-11T16:57:41.154Z,91.70
2018-03-11T17:00:08.593Z,91.80
2018-03-11T17:02:36.069Z,91.90
2018-03-11T17:05:04.296Z,92.10
2018-03-11T17:07:31.797Z,92.30
2018-03-11T17:09:59.232Z,92.10
2018-03-11T17:12:27.476Z,92.30
2018-03-11T17:14:54.953Z,92.30
2018-03-11T17:17:22.409Z,92.40
2018-03-11T17:19:50.687Z,92.70
2018-03-11T17:22:18.153Z,92.70
2018-03-11T17:24:45.629Z,92.60
2018-03-11T17:27:13.849Z,92.70
2018-03-11T17:29:41.333Z,92.70
2018-03-11T17:32:08.821Z,92.80
2018-03-11T17:34:36.342Z,93.20
2018-03-11T17:37:04.570Z,93.20
2018-03-11T17:39:34.441Z,93.20
2018-03-11T17:42:01.962Z,93.40
2018-03-11T17:44:29.415Z,93.60
2018-03-11T17:46:56.889Z,93.70
2018-03-11T17:49:24.473Z,93.80
2018-03-11T17:51:51.943Z,93.80
2018-03-11T17:54:19.508Z,93.90
2018-03-11T17:56:47.758Z,93.90
2018-03-11T17:59:15.213Z,93.90
2018-03-11T18:01:42.716Z,93.80
2018-03-11T18:04:10.209Z,94.10
2018-03-11T18:06:37.777Z,94.00
2018-03-11T18:09:05.243Z,94.10
2018-03-11T18:11:32.700Z,94.10
2018-03-11T18:14:00.158Z,94.30
2018-03-11T18:16:28.397Z,94.20
2018-03-11T18:18:55.879Z,94.20
2018-03-11T18:21:23.337Z,94.20
2018-03-11T18:23:51.566Z,94.40
2018-03-11T18:26:19.058Z,94.40
2018-03-11T18:28:46.517Z,94.40
2018-03-11T18:31:14.988Z,94.70
2018-03-11T18:33:42.567Z,94.30
2018-03-11T18:36:10.030Z,94.20
2018-03-11T18:38:37.912Z,94.10
2018-03-11T18:41:06.325Z,94.20
2018-03-11T18:43:33.839Z,94.20
2018-03-11T18:46:01.285Z,94.30
2018-03-11T18:48:29.641Z,94.40
2018-03-11T18:50:57.172Z,94.40
2018-03-11T18:53:26.185Z,94.40
2018-03-11T18:55:53.725Z,94.40
2018-03-11T18:58:21.843Z,94.40
2018-03-11T19:00:50.356Z,94.50
2018-03-11T19:03:18.325Z,94.50
2018-03-11T19:05:46.216Z,94.50
2018-03-11T19:08:13.693Z,94.50
2018-03-11T19:10:41.386Z,94.40
2018-03-11T19:13:09.232Z,94.50
2018-03-11T19:15:37.527Z,94.40
2018-03-11T19:18:05.895Z,94.40
2018-03-11T19:20:33.340Z,94.40
2018-03-11T19:23:00.873Z,94.50
2018-03-11T19:25:28.386Z,94.40
2018-03-11T19:27:55.889Z,94.60
2018-03-11T19:30:24.962Z,94.60
2018-03-11T19:32:52.450Z,94.60
2018-03-11T19:35:20.398Z,94.50
2018-03-11T19:37:48.165Z,94.40
2018-03-11T19:40:15.910Z,94.30
2018-03-11T19:42:43.387Z,94.20
2018-03-11T19:45:10.883Z,94.20
2018-03-11T19:47:39.167Z,94.10
2018-03-11T19:50:06.691Z,94.10
2018-03-11T19:52:34.317Z,94.00
2018-03-11T19:55:01.805Z,93.90
2018-03-11T19:57:29.380Z,93.80
2018-03-11T20:00:15.081Z,93.70
2018-03-11T20:02:44.099Z,93.60
2018-03-11T20:05:12.118Z,93.60
2018-03-11T20:07:39.652Z,93.60
2018-03-11T20:10:07.176Z,93.40
2018-03-11T20:12:34.685Z,93.40
2018-03-11T20:15:03.028Z,93.30
2018-03-11T20:17:30.518Z,93.30
2018-03-11T20:19:58.005Z,93.30
2018-03-11T20:22:25.643Z,93.40
2018-03-11T20:24:53.961Z,93.20
2018-03-11T20:27:21.457Z,93.10
2018-03-11T20:29:48.935Z,93.20
2018-03-11T20:32:17.243Z,93.20
2018-03-11T20:34:45.661Z,93.20
2018-03-11T20:37:13.908Z,93.20
2018-03-11T20:39:41.439Z,93.20
2018-03-11T20:42:08.979Z,93.20
2018-03-11T20:44:37.243Z,93.30
2018-03-11T20:47:04.781Z,93.30
2018-03-11T20:49:32.309Z,93.20
2018-03-11T20:51:59.811Z,93.10
2018-03-11T20:54:28.147Z,93.10
2018-03-11T20:56:55.669Z,93.10
2018-03-11T20:59:23.192Z,93.10
2018-03-11T21:01:50.761Z,92.90
2018-03-11T21:04:18.316Z,93.00
2018-03-11T21:06:45.889Z,93.00
2018-03-11T21:09:14.173Z,93.00
2018-03-11T21:11:41.670Z,93.10
2018-03-11T21:14:09.189Z,93.10
2018-03-11T21:19:28.787Z,93.30
2018-03-11T21:21:56.305Z,93.30
2018-03-11T21:24:23.866Z,93.40
2018-03-11T21:26:52.167Z,93.50
2018-03-11T21:29:20.412Z,93.20
2018-03-11T21:31:48.007Z,93.20
2018-03-11T21:34:15.480Z,93.20
2018-03-11T21:36:43.083Z,93.10
2018-03-11T21:39:11.334Z,93.30
2018-03-11T21:41:38.844Z,93.30
2018-03-11T21:44:07.065Z,93.40
2018-03-11T21:46:34.593Z,93.40
2018-03-11T21:49:03.647Z,93.30
2018-03-11T21:51:31.203Z,93.40
2018-03-11T21:53:58.756Z,93.10
2018-03-11T21:56:26.412Z,93.20
2018-03-11T21:58:53.876Z,93.20
2018-03-11T22:01:21.358Z,93.20
2018-03-11T22:03:49.605Z,93.20
2018-03-11T22:06:17.157Z,93.30
2018-03-11T22:08:44.719Z,93.30
2018-03-11T22:11:12.278Z,93.30
2018-03-11T22:13:40.551Z,93.30
2018-03-11T22:16:08.016Z,93.30
2018-03-11T22:18:35.571Z,93.40
2018-03-11T22:21:03.033Z,93.40
2018-03-11T22:23:34.799Z,93.40
2018-03-11T22:26:02.280Z,93.50
2018-03-11T22:28:29.783Z,93.60
2018-03-11T22:30:57.237Z,93.70
2018-03-11T22:33:25.523Z,94.00
2018-03-11T22:35:52.979Z,93.80
2018-03-11T22:38:20.525Z,93.80
2018-03-11T22:40:47.996Z,93.80
2018-03-11T22:43:15.451Z,93.70
2018-03-11T22:45:43.682Z,93.80
2018-03-11T22:48:11.176Z,93.60
2018-03-11T22:50:38.735Z,93.50
2018-03-11T22:53:06.198Z,93.40
2018-03-11T22:55:33.747Z,93.40
2018-03-11T22:58:01.303Z,93.30
2018-03-11T23:00:28.765Z,93.10
2018-03-11T23:02:56.418Z,93.10
2018-03-11T23:05:23.879Z,93.10
2018-03-11T23:07:51.435Z,92.90
2018-03-11T23:10:18.914Z,92.80
2018-03-11T23:12:47.163Z,92.80
2018-03-11T23:15:14.713Z,92.80
2018-03-11T23:17:42.963Z,92.60
2018-03-11T23:20:10.454Z,92.60
2018-03-11T23:22:38.014Z,92.50
2018-03-11T23:25:05.568Z,92.40
2018-03-11T23:27:33.031Z,92.40
2018-03-11T23:30:00.584Z,92.20
2018-03-11T23:32:28.141Z,92.10
2018-03-11T23:34:55.694Z,92.00
2018-03-11T23:37:23.249Z,91.80
2018-03-11T23:39:50.726Z,91.90
2018-03-11T23:42:18.947Z,91.90
2018-03-11T23:44:46.405Z,91.90
2018-03-11T23:47:13.917Z,91.90
2018-03-11T23:49:42.182Z,92.00
2018-03-11T23:52:09.745Z,92.00
2018-03-11T23:54:37.990Z,92.50
2018-03-11T23:57:05.465Z,92.20
2018-03-11T23:59:32.924Z,92.30
